Time;durP1;ratioP1;P1;durP2;ratioP2;P2;SDS_P1;SDS_P2;PMS_P1;PMS_P2;Temp;Humidity;BMP_temperature;BMP_pressure;BME280_temperature;BME280_humidity;BME280_pressure;Samples;Min_cycle;Max_cycle;Signal;HPM_P1;HPM_P2
2022/03/08 00:01:53;;;;;;;10.02;4.25;;;0.10;99.90;;;;;;5082098;28;20040;-83
2022/03/08 00:04:19;;;;;;;9.05;4.32;;;0.00;99.90;;;;;;5047861;28;20028;-84
2022/03/08 00:06:45;;;;;;;9.60;3.95;;;0.00;99.90;;;;;;5061193;28;20115;-84
2022/03/08 00:09:11;;;;;;;10.05;4.53;;;-0.10;99.90;;;;;;5077504;28;20065;-83
2022/03/08 00:11:37;;;;;;;10.40;4.32;;;0.00;99.90;;;;;;5052528;28;20040;-84
2022/03/08 00:14:03;;;;;;;9.00;4.28;;;-0.10;99.90;;;;;;5035732;28;20176;-84
2022/03/08 00:16:29;;;;;;;10.85;4.40;;;-0.10;99.90;;;;;;5077932;28;20181;-84
2022/03/08 00:18:55;;;;;;;10.20;4.88;;;-0.10;99.90;;;;;;5075361;28;20505;-84
2022/03/08 00:21:21;;;;;;;10.27;4.88;;;-0.10;99.90;;;;;;5061964;28;20494;-83
2022/03/08 00:23:47;;;;;;;9.85;4.40;;;-0.10;99.90;;;;;;5062096;28;20028;-84
2022/03/08 00:26:13;;;;;;;10.10;4.45;;;-0.10;99.90;;;;;;5059405;28;20114;-83
2022/03/08 00:28:40;;;;;;;10.07;4.53;;;0.80;99.90;;;;;;5079026;28;20072;-84
2022/03/08 00:31:05;;;;;;;10.15;4.40;;;-0.10;99.90;;;;;;5059223;28;20121;-83
2022/03/08 00:33:31;;;;;;;10.13;4.40;;;0.20;99.90;;;;;;5077835;28;20044;-83
2022/03/08 00:35:57;;;;;;;9.27;4.45;;;-0.20;99.90;;;;;;5075985;28;20044;-84
2022/03/08 00:38:23;;;;;;;9.82;4.40;;;-0.20;99.90;;;;;;5075606;28;20040;-84
2022/03/08 00:40:49;;;;;;;9.60;4.60;;;-0.20;99.90;;;;;;5060175;28;20058;-84
2022/03/08 00:43:16;;;;;;;8.90;4.30;;;-0.20;99.90;;;;;;5063560;28;20052;-84
2022/03/08 00:45:41;;;;;;;10.88;5.05;;;0.80;99.90;;;;;;5059633;28;20033;-83
2022/03/08 00:48:07;;;;;;;9.02;4.38;;;1.90;99.90;;;;;;5058726;28;20029;-83
2022/03/08 00:50:34;;;;;;;9.85;4.75;;;-0.30;99.90;;;;;;5059313;28;20134;-84
2022/03/08 00:53:00;;;;;;;10.23;4.78;;;-0.30;99.90;;;;;;5051761;28;20044;-83
2022/03/08 00:55:28;;;;;;;11.63;4.88;;;-0.40;99.90;;;;;;5077899;28;20041;-83
2022/03/08 00:57:55;;;;;;;9.98;4.43;;;-0.40;99.90;;;;;;5096307;28;20059;-83
2022/03/08 01:00:24;;;;;;;11.57;5.30;;;-0.40;99.90;;;;;;5076805;28;20040;-84
2022/03/08 01:02:50;;;;;;;9.65;4.80;;;-0.40;99.90;;;;;;5076557;28;20047;-83
2022/03/08 01:05:16;;;;;;;10.15;4.50;;;0.60;99.90;;;;;;5062933;28;20036;-83
2022/03/08 01:07:42;;;;;;;9.30;4.43;;;1.20;99.90;;;;;;5076729;28;20109;-84
2022/03/08 01:10:12;;;;;;;10.35;5.10;;;-1.60;99.90;;;;;;5079310;28;20035;-83
2022/03/08 01:12:38;;;;;;;9.75;4.97;;;-0.50;99.90;;;;;;5076724;28;20048;-83
2022/03/08 01:15:06;;;;;;;11.63;4.90;;;-0.50;99.90;;;;;;5042409;28;20050;-84
2022/03/08 01:17:32;;;;;;;11.45;5.10;;;-0.50;99.90;;;;;;5062723;28;20044;-83
2022/03/08 01:19:58;;;;;;;11.15;5.25;;;-0.50;99.90;;;;;;5068053;28;20067;-84
2022/03/08 01:22:24;;;;;;;11.85;5.18;;;-0.50;99.90;;;;;;5081468;28;20036;-83
2022/03/08 01:24:50;;;;;;;10.68;5.15;;;;;;;;;;5066597;28;20040;-83
2022/03/08 01:27:16;;;;;;;14.43;5.78;;;-0.50;99.90;;;;;;5083919;28;20091;-83
2022/03/08 01:29:42;;;;;;;14.13;5.90;;;-0.50;99.90;;;;;;5079676;28;20067;-83
2022/03/08 01:32:08;;;;;;;11.55;5.30;;;-0.50;99.90;;;;;;5061441;28;20070;-83
2022/03/08 01:34:34;;;;;;;10.65;5.65;;;-0.50;99.90;;;;;;5075023;28;20037;-83
2022/03/08 01:37:01;;;;;;;11.20;5.63;;;-0.60;99.90;;;;;;5063913;28;20050;-83
2022/03/08 01:39:27;;;;;;;10.40;5.15;;;-0.60;99.90;;;;;;5064494;28;20097;-84
2022/03/08 01:41:52;;;;;;;11.63;5.55;;;-0.50;99.90;;;;;;5050825;28;20048;-83
2022/03/08 01:44:19;;;;;;;13.32;5.68;;;-0.60;99.90;;;;;;5082177;28;20044;-83
2022/03/08 01:46:45;;;;;;;11.68;5.40;;;-0.60;99.90;;;;;;5083685;28;20024;-83
2022/03/08 01:49:11;;;;;;;10.43;5.68;;;-0.70;99.90;;;;;;5080931;28;20051;-83
2022/03/08 01:51:39;;;;;;;12.55;5.72;;;-0.70;99.90;;;;;;5081139;28;20044;-83
2022/03/08 01:54:06;;;;;;;10.93;5.40;;;-0.80;99.90;;;;;;5064620;28;20033;-83
2022/03/08 01:56:33;;;;;;;11.32;5.38;;;-0.70;99.90;;;;;;5079082;28;20490;-83
2022/03/08 01:59:03;;;;;;;11.52;6.07;;;-0.70;99.90;;;;;;5066312;28;20032;-83
2022/03/08 02:01:28;;;;;;;11.55;5.68;;;-0.70;99.90;;;;;;5061357;28;20087;-83
2022/03/08 02:03:54;;;;;;;11.63;5.40;;;-0.70;99.90;;;;;;5063842;28;20040;-83
2022/03/08 02:06:20;;;;;;;11.77;5.57;;;-0.80;99.90;;;;;;5046339;28;20032;-83
2022/03/08 02:08:46;;;;;;;11.55;5.55;;;-0.80;99.90;;;;;;5062441;28;20481;-83
2022/03/08 02:11:12;;;;;;;11.07;5.78;;;-0.80;99.90;;;;;;5069999;28;20048;-82
2022/03/08 02:13:39;;;;;;;12.02;6.03;;;-0.80;99.90;;;;;;5025615;28;20497;-83
2022/03/08 02:16:05;;;;;;;11.80;6.20;;;2.30;99.90;;;;;;5080881;28;20044;-83
2022/03/08 02:18:32;;;;;;;11.85;6.53;;;-0.80;99.90;;;;;;5062628;28;20071;-83
2022/03/08 02:21:05;;;;;;;13.57;7.05;;;-0.80;99.90;;;;;;5082898;28;20040;-83
2022/03/08 02:23:31;;;;;;;12.38;6.53;;;-0.50;99.90;;;;;;5069749;28;20036;-82
2022/03/08 02:25:57;;;;;;;12.32;6.25;;;1.10;99.90;;;;;;5079802;28;20543;-83
2022/03/08 02:28:23;;;;;;;10.98;6.18;;;-0.80;99.90;;;;;;5062767;28;20342;-82
2022/03/08 02:30:49;;;;;;;13.23;6.80;;;-0.90;99.90;;;;;;5061480;28;20060;-83
2022/03/08 02:33:14;;;;;;;13.32;6.90;;;-0.90;99.90;;;;;;5035487;28;20060;-83
2022/03/08 02:35:40;;;;;;;15.95;7.10;;;-0.80;99.90;;;;;;5063601;28;20116;-82
2022/03/08 02:38:07;;;;;;;13.02;7.05;;;-0.80;99.90;;;;;;5063771;28;20073;-83
2022/03/08 02:40:38;;;;;;;13.85;7.13;;;-0.90;99.90;;;;;;5099635;28;20036;-83
2022/03/08 02:43:06;;;;;;;12.63;7.03;;;-0.90;99.90;;;;;;5079126;28;20051;-83
2022/03/08 02:45:32;;;;;;;12.50;6.90;;;-0.70;99.90;;;;;;5066799;28;20119;-83
2022/03/08 02:47:58;;;;;;;12.48;7.07;;;-0.80;99.90;;;;;;5061580;28;20060;-82
2022/03/08 02:50:24;;;;;;;14.10;6.82;;;-0.90;99.90;;;;;;5063728;28;20648;-83
2022/03/08 02:52:52;;;;;;;14.80;7.38;;;-0.90;99.90;;;;;;5078414;28;20050;-83
2022/03/08 02:55:21;;;;;;;13.05;7.03;;;-0.50;99.90;;;;;;5081179;28;20067;-82
2022/03/08 02:57:48;;;;;;;14.10;7.03;;;-2.80;99.90;;;;;;5082789;28;20372;-83
2022/03/08 03:00:16;;;;;;;13.25;7.20;;;-1.00;99.90;;;;;;5083371;28;20063;-83
2022/03/08 03:02:42;;;;;;;12.05;7.03;;;-1.00;99.90;;;;;;5061477;28;20033;-83
2022/03/08 03:05:08;;;;;;;12.00;7.03;;;-0.50;99.90;;;;;;5064359;28;20050;-83
2022/03/08 03:07:34;;;;;;;14.05;7.93;;;-0.10;99.90;;;;;;5043318;28;20093;-84
2022/03/08 03:10:01;;;;;;;14.13;8.07;;;-1.00;99.90;;;;;;5047272;28;20040;-82
2022/03/08 03:12:26;;;;;;;13.15;7.60;;;-1.20;99.90;;;;;;5045570;28;20047;-83
2022/03/08 03:14:52;;;;;;;15.60;7.35;;;;;;;;;;5061109;28;20048;-82
2022/03/08 03:17:18;;;;;;;13.70;7.82;;;-1.00;99.90;;;;;;5080278;28;20040;-82
2022/03/08 03:19:44;;;;;;;13.88;7.47;;;-0.70;99.90;;;;;;5075640;28;20040;-82
2022/03/08 03:22:10;;;;;;;15.65;8.10;;;-0.50;99.90;;;;;;5081262;28;20664;-82
2022/03/08 03:24:36;;;;;;;12.57;7.15;;;-1.10;99.90;;;;;;5067343;28;20036;-82
2022/03/08 03:27:01;;;;;;;15.07;8.73;;;-1.10;99.90;;;;;;5045776;28;20045;-83
2022/03/08 03:29:27;;;;;;;14.50;7.90;;;-1.10;99.90;;;;;;5060949;28;20044;-82
2022/03/08 03:31:53;;;;;;;13.77;8.02;;;-1.10;99.90;;;;;;5078189;28;20044;-82
2022/03/08 03:34:19;;;;;;;13.55;7.93;;;-1.10;99.90;;;;;;5050351;28;20055;-82
2022/03/08 03:36:44;;;;;;;14.75;8.43;;;-0.60;99.90;;;;;;5075931;28;20047;-82
2022/03/08 03:39:10;;;;;;;15.93;8.90;;;;;;;;;;5045014;28;20120;-83
2022/03/08 03:41:36;;;;;;;14.20;7.90;;;-1.10;99.90;;;;;;5077352;28;20036;-83
2022/03/08 03:44:02;;;;;;;14.15;8.43;;;-1.10;99.90;;;;;;5080182;28;20040;-82
2022/03/08 03:46:28;;;;;;;13.07;7.50;;;-1.20;99.90;;;;;;5075180;28;20033;-83
2022/03/08 03:48:54;;;;;;;14.93;9.30;;;0.70;99.90;;;;;;5081244;28;20035;-83
2022/03/08 03:51:19;;;;;;;15.70;8.60;;;-1.20;99.90;;;;;;5063263;28;20178;-83
2022/03/08 03:53:45;;;;;;;14.93;8.23;;;-1.20;99.90;;;;;;5044887;28;20040;-84
2022/03/08 03:56:11;;;;;;;14.18;8.63;;;-1.20;99.90;;;;;;5074276;28;20485;-83
2022/03/08 03:58:37;;;;;;;15.02;8.77;;;-1.30;99.90;;;;;;5059115;28;20122;-83
2022/03/08 04:01:04;;;;;;;13.60;8.43;;;-1.20;99.90;;;;;;5079826;28;20417;-83
2022/03/08 04:03:30;;;;;;;14.20;8.23;;;-1.30;99.90;;;;;;5079617;28;20132;-82
2022/03/08 04:05:56;;;;;;;14.18;8.20;;;-1.30;99.90;;;;;;5077642;28;20032;-83
2022/03/08 04:08:21;;;;;;;14.88;8.95;;;-1.20;99.90;;;;;;5065359;28;20488;-83
2022/03/08 04:10:51;;;;;;;16.30;8.30;;;0.90;99.90;;;;;;5032674;28;20036;-82
2022/03/08 04:13:17;;;;;;;14.38;8.77;;;-1.20;99.90;;;;;;5075765;28;20043;-82
2022/03/08 04:15:44;;;;;;;15.68;8.85;;;-1.30;99.90;;;;;;5064770;28;20554;-82
2022/03/08 04:18:10;;;;;;;17.98;9.40;;;-1.30;99.90;;;;;;5078729;28;20044;-82
2022/03/08 04:20:36;;;;;;;17.30;9.38;;;-0.50;99.90;;;;;;5093641;28;20037;-82
2022/03/08 04:23:03;;;;;;;15.88;8.88;;;-1.40;99.90;;;;;;5062017;28;20043;-83
2022/03/08 04:25:29;;;;;;;17.25;9.60;;;-1.40;99.90;;;;;;5078081;28;20036;-82
2022/03/08 04:27:54;;;;;;;17.48;9.40;;;-1.40;99.90;;;;;;5078187;28;20097;-82
2022/03/08 04:30:20;;;;;;;15.70;9.23;;;-1.30;99.90;;;;;;5060261;28;20033;-82
2022/03/08 04:32:46;;;;;;;18.15;9.70;;;-1.50;99.90;;;;;;5064804;28;20076;-82
2022/03/08 04:35:12;;;;;;;15.60;9.90;;;-1.40;99.90;;;;;;5067433;28;20032;-82
2022/03/08 04:37:38;;;;;;;14.95;9.23;;;-1.50;99.90;;;;;;5067989;28;20036;-83
2022/03/08 04:40:08;;;;;;;15.57;9.48;;;-1.40;99.90;;;;;;5078510;28;21464;-82
2022/03/08 04:42:33;;;;;;;15.18;8.85;;;-1.50;99.90;;;;;;5075167;28;20067;-83
2022/03/08 04:44:59;;;;;;;15.73;9.05;;;;;;;;;;5078698;28;20527;-82
2022/03/08 04:47:25;;;;;;;22.00;9.73;;;-1.50;99.90;;;;;;5062725;28;20036;-83
2022/03/08 04:49:51;;;;;;;15.77;9.05;;;0.00;99.90;;;;;;5066124;28;20047;-82
2022/03/08 04:52:17;;;;;;;16.55;9.75;;;-0.90;99.90;;;;;;5051429;28;20425;-83
2022/03/08 04:54:42;;;;;;;16.33;10.18;;;-1.10;99.90;;;;;;5063831;28;20052;-83
2022/03/08 04:57:08;;;;;;;16.67;9.68;;;-1.30;99.90;;;;;;5060082;28;20074;-83
2022/03/08 04:59:34;;;;;;;17.48;10.55;;;-1.50;99.90;;;;;;5062342;28;20110;-82
2022/03/08 05:02:00;;;;;;;15.48;9.88;;;;;;;;;;5061268;28;20064;-83
2022/03/08 05:04:25;;;;;;;15.63;10.50;;;-1.60;99.90;;;;;;5075531;28;20033;-82
2022/03/08 05:06:51;;;;;;;16.42;10.40;;;-1.50;99.90;;;;;;5061623;28;20028;-82
2022/03/08 05:09:17;;;;;;;17.13;10.52;;;-0.80;99.90;;;;;;5063462;28;20112;-82
2022/03/08 05:11:43;;;;;;;17.33;10.27;;;-1.00;99.90;;;;;;5064605;28;20089;-83
2022/03/08 05:14:09;;;;;;;18.05;10.90;;;-1.60;99.90;;;;;;5081350;28;20150;-82
2022/03/08 05:16:35;;;;;;;16.77;10.25;;;-0.70;99.90;;;;;;5101112;28;20034;-82
2022/03/08 05:19:00;;;;;;;16.65;10.65;;;-1.60;99.90;;;;;;5078744;28;20032;-83
2022/03/08 05:21:26;;;;;;;16.58;10.55;;;-1.60;99.90;;;;;;5085702;28;20380;-82
2022/03/08 05:23:52;;;;;;;16.85;10.40;;;-0.20;99.90;;;;;;5082793;28;20089;-82
2022/03/08 05:26:18;;;;;;;20.58;10.45;;;-1.60;99.90;;;;;;5079420;28;20139;-82
2022/03/08 05:28:43;;;;;;;19.83;11.23;;;-1.60;99.90;;;;;;5079683;28;20055;-82
2022/03/08 05:31:10;;;;;;;19.38;10.98;;;-1.60;99.90;;;;;;5045270;28;20043;-83
2022/03/08 05:33:36;;;;;;;18.48;11.52;;;0.20;99.90;;;;;;5080817;28;20055;-83
2022/03/08 05:36:02;;;;;;;17.63;10.45;;;-0.70;99.90;;;;;;5064163;28;20517;-82
2022/03/08 05:38:28;;;;;;;19.42;10.95;;;-1.60;99.90;;;;;;5081620;28;20032;-82
2022/03/08 05:40:54;;;;;;;18.27;11.43;;;-1.50;99.90;;;;;;5064023;28;20055;-83
2022/03/08 05:43:20;;;;;;;18.42;10.82;;;-1.60;99.90;;;;;;5062370;28;20036;-83
2022/03/08 05:45:46;;;;;;;18.88;11.63;;;-1.50;99.90;;;;;;5082844;28;20497;-82
2022/03/08 05:48:11;;;;;;;17.73;11.20;;;-1.50;99.90;;;;;;5064855;28;20437;-82
2022/03/08 05:50:37;;;;;;;20.27;11.95;;;0.10;99.90;;;;;;5083227;28;20051;-82
2022/03/08 05:53:03;;;;;;;20.13;11.88;;;-1.40;99.90;;;;;;5082943;28;20076;-82
2022/03/08 05:55:29;;;;;;;19.23;11.80;;;-1.40;99.90;;;;;;5080767;28;20045;-81
2022/03/08 05:57:55;;;;;;;21.33;11.52;;;-1.40;99.90;;;;;;5084007;28;20097;-81
2022/03/08 06:00:21;;;;;;;20.40;11.68;;;-0.20;99.90;;;;;;5044215;28;20047;-81
2022/03/08 06:02:47;;;;;;;21.60;13.10;;;-1.30;99.90;;;;;;5082740;28;20466;-81
2022/03/08 06:05:13;;;;;;;20.15;11.70;;;-1.30;99.90;;;;;;5082504;28;20083;-81
2022/03/08 06:07:39;;;;;;;20.73;11.98;;;-0.30;99.90;;;;;;5085672;28;20530;-81
2022/03/08 06:10:08;;;;;;;20.70;11.73;;;-1.20;99.90;;;;;;5064295;28;20029;-82
2022/03/08 06:12:34;;;;;;;18.80;11.00;;;-1.20;99.90;;;;;;5082174;28;20039;-82
2022/03/08 06:15:00;;;;;;;22.33;11.93;;;-1.20;99.90;;;;;;5053217;28;20052;-81
2022/03/08 06:17:26;;;;;;;21.58;11.75;;;-1.20;99.90;;;;;;5079512;28;20032;-81
2022/03/08 06:19:52;;;;;;;20.33;11.43;;;-1.20;99.90;;;;;;5065347;28;20036;-81
2022/03/08 06:22:17;;;;;;;20.50;11.63;;;-1.20;99.90;;;;;;5077765;28;20171;-81
2022/03/08 06:24:43;;;;;;;21.65;11.45;;;-1.20;99.90;;;;;;5066815;28;20039;-81
2022/03/08 06:27:09;;;;;;;22.48;12.45;;;-1.10;99.90;;;;;;5064113;28;20162;-82
2022/03/08 06:29:35;;;;;;;21.20;11.65;;;-1.20;99.90;;;;;;5066952;28;20043;-81
2022/03/08 06:32:00;;;;;;;20.23;11.43;;;-1.00;99.90;;;;;;5061556;28;20044;-82
2022/03/08 06:34:26;;;;;;;20.55;11.50;;;-1.20;99.90;;;;;;5078187;28;20166;-81
2022/03/08 06:36:52;;;;;;;20.77;11.95;;;-1.10;99.90;;;;;;5082279;28;20165;-82
2022/03/08 06:39:18;;;;;;;22.33;11.73;;;-1.10;99.90;;;;;;5065251;28;20054;-81
2022/03/08 06:41:44;;;;;;;22.80;11.60;;;-1.10;99.90;;;;;;5076916;28;20055;-82
2022/03/08 06:44:11;;;;;;;19.73;11.52;;;-0.50;99.90;;;;;;5062429;28;20036;-82
2022/03/08 06:46:41;;;;;;;19.08;11.30;;;-1.10;99.90;;;;;;5046005;28;20032;-82
2022/03/08 06:49:08;;;;;;;21.45;11.95;;;0.30;99.90;;;;;;5066681;28;20036;-82
2022/03/08 06:51:35;;;;;;;22.30;12.13;;;-0.90;99.90;;;;;;5059089;28;20147;-82
2022/03/08 06:54:01;;;;;;;22.17;11.95;;;-0.90;99.90;;;;;;5079198;28;20074;-82
2022/03/08 06:56:26;;;;;;;20.85;11.18;;;0.80;99.90;;;;;;5065382;28;20524;-82
2022/03/08 06:58:52;;;;;;;19.52;11.35;;;-0.70;99.90;;;;;;5081572;28;20101;-81
2022/03/08 07:01:18;;;;;;;24.52;11.60;;;1.20;99.90;;;;;;5065467;28;20039;-82
2022/03/08 07:03:43;;;;;;;20.52;11.52;;;-0.50;99.90;;;;;;5068214;28;20028;-82
2022/03/08 07:06:10;;;;;;;20.13;11.20;;;-0.10;99.90;;;;;;5045421;28;20097;-82
2022/03/08 07:08:37;;;;;;;21.80;11.43;;;-0.30;99.90;;;;;;5061974;28;20036;-82
2022/03/08 07:11:04;;;;;;;20.70;11.80;;;-0.20;99.90;;;;;;5061722;28;20568;-82
2022/03/08 07:13:30;;;;;;;22.85;11.23;;;-0.10;99.90;;;;;;5080358;28;20036;-84
2022/03/08 07:15:56;;;;;;;22.35;11.32;;;0.20;99.90;;;;;;5078998;28;20040;-85
2022/03/08 07:18:23;;;;;;;20.17;11.75;;;0.70;99.90;;;;;;5078902;28;20028;-83
2022/03/08 07:20:50;;;;;;;20.95;11.48;;;2.40;99.90;;;;;;5060133;28;20485;-85
2022/03/08 07:23:15;;;;;;;20.02;11.82;;;0.50;99.90;;;;;;5074226;28;20520;-84
2022/03/08 07:25:41;;;;;;;18.90;10.80;;;0.50;99.90;;;;;;5065616;28;20032;-84
2022/03/08 07:28:07;;;;;;;20.58;11.63;;;2.40;99.90;;;;;;5046918;28;20505;-85
2022/03/08 07:30:33;;;;;;;20.27;10.90;;;0.70;99.90;;;;;;5058150;28;20097;-86
2022/03/08 07:33:01;;;;;;;18.80;10.70;;;0.90;99.90;;;;;;5062229;28;20120;-86
2022/03/08 07:35:27;;;;;;;20.60;10.98;;;1.00;99.90;;;;;;5084509;28;20035;-84
2022/03/08 07:37:53;;;;;;;20.40;11.23;;;2.90;99.90;;;;;;5051926;28;20512;-87
2022/03/08 07:40:18;;;;;;;19.88;10.63;;;2.10;99.90;;;;;;5085861;28;20412;-86
2022/03/08 07:42:45;;;;;;;18.38;10.90;;;;;;;;;;5060812;28;20113;-90
2022/03/08 07:45:10;;;;;;;17.88;10.38;;;1.50;99.90;;;;;;5069166;28;20089;-88
2022/03/08 07:47:36;;;;;;;19.45;10.52;;;1.60;99.90;;;;;;5076280;28;20188;-86
2022/03/08 07:50:03;;;;;;;20.30;11.55;;;1.70;99.90;;;;;;5095765;28;20044;-85
2022/03/08 07:52:29;;;;;;;18.15;10.85;;;1.80;99.90;;;;;;5079468;28;20055;-85
2022/03/08 07:54:55;;;;;;;19.35;10.82;;;4.10;99.90;;;;;;5063603;28;20029;-87
2022/03/08 07:57:20;;;;;;;19.55;10.80;;;2.00;99.90;;;;;;5058580;28;20489;-86
2022/03/08 07:59:46;;;;;;;20.23;10.18;;;2.20;99.90;;;;;;5078176;28;20051;-85
2022/03/08 08:02:12;;;;;;;18.42;10.02;;;2.40;99.90;;;;;;5060092;28;20517;-85
2022/03/08 08:04:38;;;;;;;16.55;9.85;;;2.40;99.90;;;;;;5058319;28;20091;-85
2022/03/08 08:07:04;;;;;;;20.20;11.15;;;2.60;99.90;;;;;;5077453;28;20032;-86
2022/03/08 08:09:30;;;;;;;20.08;10.43;;;2.70;99.90;;;;;;5061612;28;20040;-85
2022/03/08 08:11:55;;;;;;;18.88;9.68;;;2.80;99.90;;;;;;5061233;28;20036;-86
2022/03/08 08:14:21;;;;;;;17.58;9.77;;;2.90;99.90;;;;;;5048893;28;20039;-87
2022/03/08 08:16:47;;;;;;;17.20;9.73;;;2.30;99.90;;;;;;5047612;28;20042;-85
2022/03/08 08:19:13;;;;;;;17.73;10.02;;;3.50;99.90;;;;;;5062411;28;20117;-87
2022/03/08 08:21:38;;;;;;;20.33;10.18;;;3.30;99.90;;;;;;5080097;28;20093;-85
2022/03/08 08:24:05;;;;;;;17.20;9.60;;;5.20;99.90;;;;;;5042716;28;20063;-85
2022/03/08 08:26:31;;;;;;;16.80;9.55;;;3.50;99.90;;;;;;5066404;28;20043;-85
2022/03/08 08:28:57;;;;;;;19.67;9.40;;;3.60;99.90;;;;;;5049901;28;20386;-87
2022/03/08 08:31:23;;;;;;;16.40;8.98;;;3.80;99.90;;;;;;5059536;28;20489;-84
2022/03/08 08:33:50;;;;;;;17.30;8.95;;;3.80;99.90;;;;;;5079818;28;20062;-86
2022/03/08 08:36:16;;;;;;;17.15;9.23;;;5.70;99.90;;;;;;5074726;28;20052;-85
2022/03/08 08:38:42;;;;;;;16.30;9.07;;;4.70;99.90;;;;;;5075542;28;20056;-85
2022/03/08 08:41:08;;;;;;;15.70;9.15;;;4.20;99.90;;;;;;5076209;28;20521;-86
2022/03/08 08:43:33;;;;;;;17.60;9.20;;;5.90;99.90;;;;;;5077189;28;20079;-86
2022/03/08 08:45:59;;;;;;;15.63;8.48;;;4.40;99.90;;;;;;5068503;28;20119;-86
2022/03/08 08:48:26;;;;;;;15.65;8.52;;;4.50;99.90;;;;;;5062768;28;20116;-84
2022/03/08 08:50:52;;;;;;;15.85;8.77;;;5.70;99.90;;;;;;5082325;28;20115;-85
2022/03/08 08:53:19;;;;;;;15.02;8.32;;;4.70;99.90;;;;;;5083098;28;20036;-84
2022/03/08 08:55:45;;;;;;;15.35;8.80;;;5.00;99.90;;;;;;5082256;28;20028;-85
2022/03/08 08:58:11;;;;;;;14.32;8.50;;;5.60;99.90;;;;;;5054343;28;20043;-86
2022/03/08 09:00:36;;;;;;;14.60;8.15;;;5.00;99.90;;;;;;5079272;28;20484;-86
2022/03/08 09:03:03;;;;;;;15.82;8.38;;;5.10;99.90;;;;;;5067910;28;20535;-86
2022/03/08 09:05:29;;;;;;;14.35;8.55;;;6.10;99.90;;;;;;5070644;28;20039;-84
2022/03/08 09:07:55;;;;;;;14.80;8.13;;;5.90;99.90;;;;;;5050613;28;20427;-83
2022/03/08 09:10:23;;;;;;;15.07;8.27;;;5.40;99.90;;;;;;5083210;28;20029;-85
2022/03/08 09:12:51;;;;;;;13.80;7.57;;;5.50;99.90;;;;;;5064629;28;20048;-85
2022/03/08 09:15:18;;;;;;;15.43;7.88;;;5.90;99.90;;;;;;5062595;28;20435;-84
2022/03/08 09:17:44;;;;;;;14.48;7.80;;;6.70;99.90;;;;;;5062872;28;20040;-84
2022/03/08 09:20:11;;;;;;;12.70;7.38;;;5.80;99.90;;;;;;5063227;28;20044;-84
2022/03/08 09:22:37;;;;;;;13.13;7.85;;;5.90;99.90;;;;;;5062135;28;20040;-85
2022/03/08 09:25:03;;;;;;;14.05;7.78;;;6.00;99.90;;;;;;5066412;28;20032;-84
2022/03/08 09:27:30;;;;;;;13.45;7.10;;;6.10;99.90;;;;;;5045536;28;20051;-83
2022/03/08 09:29:56;;;;;;;13.48;7.10;;;6.60;99.90;;;;;;5060516;28;20157;-84
2022/03/08 09:32:22;;;;;;;13.18;7.32;;;6.20;99.90;;;;;;5064606;28;20039;-84
2022/03/08 09:34:48;;;;;;;13.35;7.32;;;6.30;99.90;;;;;;5063517;28;20040;-85
2022/03/08 09:37:14;;;;;;;13.43;6.50;;;6.40;99.90;;;;;;5085936;28;20187;-83
2022/03/08 09:39:40;;;;;;;12.90;7.18;;;6.50;99.90;;;;;;5064409;28;20636;-83
2022/03/08 09:42:06;;;;;;;12.82;7.32;;;7.70;99.90;;;;;;5063950;28;20536;-83
2022/03/08 09:44:32;;;;;;;12.98;7.20;;;6.70;99.90;;;;;;5080160;28;20059;-83
2022/03/08 09:46:58;;;;;;;12.52;6.95;;;6.80;99.90;;;;;;5050194;28;20385;-84
2022/03/08 09:49:24;;;;;;;12.52;6.75;;;7.80;99.90;;;;;;5081937;28;20040;-83
2022/03/08 09:51:52;;;;;;;11.50;6.70;;;7.00;99.90;;;;;;5079282;28;20058;-86
2022/03/08 09:54:18;;;;;;;13.38;6.55;;;6.90;99.90;;;;;;5081215;28;20493;-85
2022/03/08 09:56:43;;;;;;;11.85;6.55;;;7.40;99.90;;;;;;5067444;28;20042;-84
2022/03/08 09:59:09;;;;;;;12.00;6.85;;;8.20;99.90;;;;;;5053140;28;20048;-86
2022/03/08 10:01:35;;;;;;;12.02;7.05;;;7.10;99.90;;;;;;5082242;28;20044;-85
2022/03/08 10:04:01;;;;;;;12.90;6.82;;;8.00;99.90;;;;;;5058753;28;20677;-85
2022/03/08 10:06:46;;;;;;;13.05;6.45;;;7.20;99.90;;;;;;5083020;28;20498;-86
2022/03/08 10:09:14;;;;;;;12.45;6.65;;;7.30;99.90;;;;;;5065150;28;20264;-86
2022/03/08 10:11:41;;;;;;;11.50;6.28;;;7.40;99.90;;;;;;5082606;28;20044;-86
2022/03/08 10:14:26;;;;;;;11.50;6.55;;;7.40;99.90;;;;;;5079030;28;20428;-85
2022/03/08 10:16:52;;;;;;;12.50;6.43;;;7.50;99.90;;;;;;5069173;28;20159;-85
2022/03/08 10:19:18;;;;;;;12.15;6.68;;;7.50;99.90;;;;;;5063333;28;20043;-85
2022/03/08 10:21:54;;;;;;;12.98;6.68;;;7.90;99.90;;;;;;5065758;28;20252;-83
2022/03/08 10:24:29;;;;;;;11.20;5.50;;;7.70;99.90;;;;;;5079999;28;20029;-85
2022/03/08 10:26:58;;;;;;;11.35;5.55;;;7.80;99.90;;;;;;5063531;28;20067;-84
2022/03/08 10:29:36;;;;;;;12.50;5.57;;;7.80;99.90;;;;;;5080103;28;20037;-85
2022/03/08 10:32:09;;;;;;;11.15;5.20;;;7.80;99.90;;;;;;5082631;28;20062;-86
2022/03/08 10:34:36;;;;;;;11.65;5.22;;;7.90;99.90;;;;;;5079076;28;20507;-84
2022/03/08 10:37:12;;;;;;;10.93;4.78;;;8.00;99.90;;;;;;5083836;28;20040;-85
2022/03/08 10:39:56;;;;;;;10.77;5.10;;;8.00;99.90;;;;;;5104449;28;20044;-84
2022/03/08 10:42:30;;;;;;;9.68;4.78;;;8.10;99.90;;;;;;5089348;28;20036;-88
2022/03/08 10:45:15;;;;;;;11.82;5.03;;;8.20;99.90;;;;;;5080251;28;20093;-85
2022/03/08 10:47:46;;;;;;;10.15;4.90;;;8.30;99.90;;;;;;5081713;28;20032;-85
2022/03/08 10:50:14;;;;;;;10.38;5.10;;;8.30;99.90;;;;;;5080047;28;20068;-86
2022/03/08 10:52:43;;;;;;;9.85;4.40;;;8.30;99.90;;;;;;5083610;28;20040;-84
2022/03/08 10:55:14;;;;;;;11.02;4.90;;;8.40;99.90;;;;;;5064187;28;20527;-85
2022/03/08 10:57:45;;;;;;;10.63;4.90;;;8.50;99.90;;;;;;5077679;28;20032;-85
2022/03/08 11:00:15;;;;;;;9.57;4.55;;;8.50;99.90;;;;;;5078676;28;20044;-87
2022/03/08 11:02:53;;;;;;;9.20;4.43;;;8.60;99.90;;;;;;5080718;28;20514;-86
2022/03/08 11:05:21;;;;;;;10.95;4.57;;;8.80;99.90;;;;;;5096953;28;20416;-88
2022/03/08 11:07:47;;;;;;;10.00;4.90;;;8.60;99.90;;;;;;5042998;28;20504;-86
2022/03/08 11:10:14;;;;;;;9.55;4.63;;;8.60;99.90;;;;;;5047143;28;20536;-86
2022/03/08 11:12:41;;;;;;;10.30;4.85;;;8.70;99.90;;;;;;5066086;28;20078;-87
2022/03/08 11:15:10;;;;;;;9.55;4.40;;;9.60;99.90;;;;;;5059926;28;20036;-87
2022/03/08 11:17:38;;;;;;;9.95;4.25;;;8.80;99.90;;;;;;5086816;28;20875;-86
2022/03/08 11:20:09;;;;;;;10.05;4.30;;;8.80;99.90;;;;;;5097872;28;20036;-87
2022/03/08 11:22:35;;;;;;;9.40;4.50;;;8.90;99.90;;;;;;5081605;28;20037;-88
2022/03/08 11:25:02;;;;;;;9.57;4.45;;;8.90;99.90;;;;;;5065048;28;20061;-87
2022/03/08 11:27:29;;;;;;;10.00;4.25;;;8.90;99.90;;;;;;5027442;28;20052;-87
2022/03/08 11:29:54;;;;;;;8.57;4.15;;;9.00;99.90;;;;;;5043834;28;20505;-87
2022/03/08 11:32:29;;;;;;;9.60;4.70;;;9.10;99.90;;;;;;5060493;28;20074;-88
2022/03/08 11:35:01;;;;;;;10.60;5.00;;;9.10;99.90;;;;;;5076299;28;20039;-87
2022/03/08 11:37:29;;;;;;;11.43;5.05;;;9.20;99.90;;;;;;5082617;28;20149;-87
2022/03/08 11:40:17;;;;;;;9.55;4.90;;;9.30;99.90;;;;;;5063788;28;20032;-86
2022/03/08 11:42:46;;;;;;;9.70;4.70;;;9.30;99.90;;;;;;5085125;28;20040;-87
2022/03/08 11:45:27;;;;;;;9.40;4.55;;;9.40;99.90;;;;;;5084727;28;20127;-86
2022/03/08 11:47:54;;;;;;;10.48;4.78;;;9.40;99.90;;;;;;5085082;28;20051;-88
2022/03/08 11:50:27;;;;;;;9.38;4.28;;;9.50;99.90;;;;;;5069970;28;20039;-87
2022/03/08 11:53:08;;;;;;;8.90;4.20;;;9.50;99.90;;;;;;5067191;28;20032;-86
2022/03/08 11:55:43;;;;;;;8.68;3.70;;;9.50;99.90;;;;;;5083319;28;20174;-87
2022/03/08 11:58:10;;;;;;;10.02;3.72;;;9.60;99.90;;;;;;5083400;28;20036;-87
2022/03/08 12:00:37;;;;;;;9.40;3.90;;;10.40;99.90;;;;;;5083212;28;20051;-86
2022/03/08 12:03:11;;;;;;;8.90;3.78;;;9.60;99.90;;;;;;5077852;28;20174;-88
2022/03/08 12:05:43;;;;;;;8.60;3.70;;;9.60;99.60;;;;;;5061726;28;20043;-89
2022/03/08 12:08:27;;;;;;;9.10;4.00;;;9.90;99.90;;;;;;5081255;28;20032;-89
2022/03/08 12:11:02;;;;;;;9.52;3.90;;;9.70;99.90;;;;;;5080199;28;20035;-86
2022/03/08 12:13:29;;;;;;;9.73;4.00;;;9.70;99.90;;;;;;5061330;28;20750;-85
2022/03/08 12:16:08;;;;;;;8.63;3.70;;;9.70;99.90;;;;;;5081389;28;20059;-85
2022/03/08 12:18:35;;;;;;;9.32;4.00;;;9.80;99.90;;;;;;5079696;28;20153;-86
2022/03/08 12:21:25;;;;;;;9.25;3.55;;;9.80;99.90;;;;;;5079953;28;20036;-86
2022/03/08 12:23:58;;;;;;;9.18;3.90;;;9.90;99.90;;;;;;5076281;28;20035;-84
2022/03/08 12:26:24;;;;;;;;;;;9.90;99.90;;;;;;5057919;28;20140;-86
2022/03/08 12:29:20;;;;;;;8.52;3.63;;;9.90;99.90;;;;;;5076895;28;19920;-87
2022/03/08 12:31:58;;;;;;;9.20;3.80;;;10.00;99.90;;;;;;5062625;28;20449;-84
2022/03/08 12:34:34;;;;;;;9.57;3.75;;;10.70;99.90;;;;;;5061574;28;20491;-85
2022/03/08 12:37:06;;;;;;;9.25;3.67;;;10.10;99.90;;;;;;5077872;28;20036;-86
2022/03/08 12:39:47;;;;;;;9.23;3.72;;;10.10;99.90;;;;;;5043557;28;20180;-86
2022/03/08 12:42:33;;;;;;;8.52;3.97;;;10.10;99.90;;;;;;5081268;28;20599;-85
2022/03/08 12:45:21;;;;;;;8.82;3.95;;;10.10;99.30;;;;;;5076846;28;20038;-86